Time;durP1;ratioP1;P1;durP2;ratioP2;P2;SDS_P1;SDS_P2;PMS_P1;PMS_P2;Temp;Humidity;BMP_temperature;BMP_pressure;BME280_temperature;BME280_humidity;BME280_pressure;Samples;Min_cycle;Max_cycle;Signal;HPM_P1;HPM_P2
2023/01/08 00:02:41;;;;;;;11.87;7.53;;;;;;;;;;4971064;28;20544;-87
2023/01/08 00:05:45;;;;;;;10.03;6.87;;;;;;;;;;4971125;28;20543;-87
2023/01/08 00:08:49;;;;;;;11.07;6.97;;;;;;;;;;4972015;28;20551;-87
2023/01/08 00:11:53;;;;;;;9.30;7.13;;;;;;;;;;4970337;28;20619;-87
2023/01/08 00:14:57;;;;;;;10.53;7.20;;;;;;;;;;4948685;29;21062;-87
2023/01/08 00:18:02;;;;;;;11.67;7.93;;;;;;;;;;4970735;28;20614;-87
2023/01/08 00:21:08;;;;;;;11.43;7.30;;;;;;;;;;4970439;28;20658;-87
2023/01/08 00:24:12;;;;;;;11.17;7.37;;;;;;;;;;4970379;28;20547;-87
2023/01/08 00:27:16;;;;;;;11.30;7.73;;;;;;;;;;4970387;28;20885;-87
2023/01/08 00:30:20;;;;;;;12.50;6.80;;;;;;;;;;4937482;29;20634;-87
2023/01/08 00:33:25;;;;;;;8.57;6.67;;;;;;;;;;4971383;28;20548;-88
2023/01/08 00:36:29;;;;;;;8.20;6.67;;;;;;;;;;4971003;28;21075;-87
2023/01/08 00:39:33;;;;;;;11.23;7.03;;;;;;;;;;4971188;28;20545;-87
2023/01/08 00:42:37;;;;;;;8.63;6.57;;;;;;;;;;4970605;28;21146;-88
2023/01/08 00:45:41;;;;;;;11.23;7.63;;;;;;;;;;4959340;29;20923;-87
2023/01/08 00:48:46;;;;;;;10.17;7.17;;;;;;;;;;4947582;29;20614;-87
2023/01/08 00:51:50;;;;;;;8.30;6.53;;;;;;;;;;4969952;28;20622;-87
2023/01/08 00:54:54;;;;;;;7.80;6.07;;;;;;;;;;4970002;28;20551;-87
2023/01/08 00:57:58;;;;;;;7.93;6.10;;;;;;;;;;4957427;28;20551;-87
2023/01/08 01:01:09;;;;;;;8.67;6.10;;;;;;;;;;4958437;29;20654;-87
2023/01/08 01:04:13;;;;;;;10.57;5.93;;;;;;;;;;4958609;29;20548;-87
2023/01/08 01:07:18;;;;;;;11.57;6.27;;;;;;;;;;4969799;28;20559;-87
2023/01/08 01:10:22;;;;;;;8.27;6.17;;;;;;;;;;4958285;29;20626;-88
2023/01/08 01:13:26;;;;;;;7.53;5.80;;;;;;;;;;4969164;28;20544;-88
2023/01/08 01:16:30;;;;;;;8.77;5.90;;;;;;;;;;4968835;28;20552;-88
2023/01/08 01:19:35;;;;;;;8.00;5.93;;;;;;;;;;4968773;28;20614;-88
2023/01/08 01:22:38;;;;;;;7.63;5.97;;;;;;;;;;4968915;28;20591;-88
2023/01/08 01:25:42;;;;;;;8.67;6.10;;;;;;;;;;4957916;29;21094;-88
2023/01/08 01:28:49;;;;;;;11.80;6.07;;;;;;;;;;4935892;29;20544;-88
2023/01/08 01:31:53;;;;;;;6.80;5.67;;;;;;;;;;4946911;29;21177;-88
2023/01/08 01:34:57;;;;;;;8.83;5.47;;;;;;;;;;4946886;29;20540;-88
2023/01/08 01:38:02;;;;;;;6.50;5.13;;;;;;;;;;4957576;29;20552;-88
2023/01/08 01:41:06;;;;;;;8.47;6.23;;;;;;;;;;4946310;29;20662;-88
2023/01/08 01:44:40;;;;;;;10.93;6.07;;;;;;;;;;4957854;29;20870;-88
2023/01/08 01:48:06;;;;;;;9.67;6.57;;;;;;;;;;4957149;29;20918;-88
2023/01/08 01:51:10;;;;;;;9.50;6.57;;;;;;;;;;4938701;29;20975;-88
2023/01/08 01:54:16;;;;;;;7.83;5.80;;;;;;;;;;4946106;29;20611;-87
2023/01/08 01:57:20;;;;;;;6.53;5.53;;;;;;;;;;4939293;29;20548;-87
2023/01/08 02:00:27;;;;;;;8.93;6.67;;;;;;;;;;4963075;29;20634;-87
2023/01/08 02:03:36;;;;;;;9.50;6.33;;;;;;;;;;4974105;28;20544;-87
2023/01/08 02:07:02;;;;;;;9.03;6.27;;;;;;;;;;4952012;29;20591;-87
2023/01/08 02:10:12;;;;;;;7.93;5.90;;;;;;;;;;4974482;28;20544;-87
2023/01/08 02:13:22;;;;;;;7.27;5.90;;;;;;;;;;4952305;29;21067;-87
2023/01/08 02:16:44;;;;;;;8.17;5.87;;;;;;;;;;4964100;29;20551;-87
2023/01/08 02:19:55;;;;;;;7.30;6.10;;;;;;;;;;4974907;28;20610;-88
2023/01/08 02:23:20;;;;;;;8.43;6.00;;;;;;;;;;4963264;28;20643;-87
2023/01/08 02:26:31;;;;;;;8.90;6.40;;;;;;;;;;4951975;29;20551;-87
2023/01/08 02:29:35;;;;;;;9.43;5.77;;;;;;;;;;4974282;28;20603;-88
2023/01/08 02:32:41;;;;;;;8.33;5.43;;;;;;;;;;4974447;28;20602;-87
2023/01/08 02:35:54;;;;;;;8.23;6.17;;;;;;;;;;4974117;28;20603;-87
2023/01/08 02:39:01;;;;;;;8.83;6.13;;;;;;;;;;4962760;29;20552;-87
2023/01/08 02:42:20;;;;;;;8.27;5.90;;;;;;;;;;4951433;29;20662;-87
2023/01/08 02:45:45;;;;;;;8.67;6.93;;;;;;;;;;4973732;28;20544;-87
2023/01/08 02:48:59;;;;;;;8.77;6.00;;;;;;;;;;4962096;29;21075;-87
2023/01/08 02:52:07;;;;;;;8.93;5.70;;;;;;;;;;4973956;28;20622;-87
2023/01/08 02:55:11;;;;;;;9.77;5.77;;;;;;;;;;4962421;29;20547;-87
2023/01/08 02:58:16;;;;;;;7.90;5.67;;;;;;;;;;4961874;29;20540;-87
2023/01/08 03:01:22;;;;;;;10.27;6.03;;;;;;;;;;4961306;29;20984;-87
2023/01/08 03:04:31;;;;;;;7.50;5.87;;;;;;;;;;4962426;29;20560;-87
2023/01/08 03:07:36;;;;;;;8.37;6.27;;;;;;;;;;4950718;29;21166;-87
2023/01/08 03:10:44;;;;;;;9.23;5.67;;;;;;;;;;4962575;29;20626;-88
2023/01/08 03:14:07;;;;;;;9.80;5.70;;;;;;;;;;4963254;28;20543;-88
2023/01/08 03:17:28;;;;;;;7.70;5.13;;;;;;;;;;4962224;29;20548;-87
2023/01/08 03:20:34;;;;;;;9.50;5.77;;;;;;;;;;4950088;28;21190;-88
2023/01/08 03:23:40;;;;;;;8.90;5.50;;;;;;;;;;4973069;28;20994;-87
2023/01/08 03:26:47;;;;;;;10.20;5.90;;;;;;;;;;4941115;29;20548;-87
2023/01/08 03:29:53;;;;;;;7.93;5.33;;;;;;;;;;4950676;29;20540;-87
2023/01/08 03:32:59;;;;;;;7.20;5.67;;;;;;;;;;4973138;28;20539;-87
2023/01/08 03:36:06;;;;;;;7.50;5.57;;;;;;;;;;4972630;28;20547;-87
2023/01/08 03:39:31;;;;;;;9.03;5.60;;;;;;;;;;4961997;28;21087;-87
2023/01/08 03:42:36;;;;;;;7.03;5.57;;;;;;;;;;4961837;29;20600;-87
2023/01/08 03:45:52;;;;;;;9.27;6.40;;;;;;;;;;4962825;29;20544;-88
2023/01/08 03:48:58;;;;;;;8.07;5.40;;;;;;;;;;4972763;28;20599;-87
2023/01/08 03:52:02;;;;;;;7.83;5.77;;;;;;;;;;4972782;28;20623;-87
2023/01/08 03:55:06;;;;;;;8.60;5.37;;;;;;;;;;4973734;28;20903;-87
2023/01/08 03:58:11;;;;;;;7.77;5.40;;;;;;;;;;4939203;29;20544;-87
2023/01/08 04:01:15;;;;;;;8.27;5.37;;;;;;;;;;4961674;28;20975;-87
2023/01/08 04:04:19;;;;;;;8.23;5.50;;;;;;;;;;4960449;28;20536;-87
2023/01/08 04:07:24;;;;;;;6.97;5.43;;;;;;;;;;4961878;29;20551;-87
2023/01/08 04:10:28;;;;;;;5.97;4.80;;;;;;;;;;4961821;28;20622;-87
2023/01/08 04:13:32;;;;;;;7.20;4.93;;;;;;;;;;4962358;29;20540;-87
2023/01/08 04:16:37;;;;;;;7.43;5.20;;;;;;;;;;4940550;29;20569;-87
2023/01/08 04:19:41;;;;;;;8.10;5.00;;;;;;;;;;4961322;29;20614;-87
2023/01/08 04:22:45;;;;;;;7.20;5.03;;;;;;;;;;4961827;28;20650;-87
2023/01/08 04:25:49;;;;;;;6.70;4.60;;;;;;;;;;4962867;29;20610;-87
2023/01/08 04:28:53;;;;;;;6.80;5.13;;;;;;;;;;4961863;29;20544;-87
2023/01/08 04:31:59;;;;;;;9.00;4.97;;;;;;;;;;4973606;28;20626;-87
2023/01/08 04:35:03;;;;;;;6.63;4.60;;;;;;;;;;4964739;29;21074;-87
2023/01/08 04:38:07;;;;;;;10.67;5.37;;;;;;;;;;4976899;28;20548;-87
2023/01/08 04:41:12;;;;;;;6.70;4.53;;;;;;;;;;4953960;29;20631;-87
2023/01/08 04:44:16;;;;;;;6.60;4.77;;;;;;;;;;4953293;29;20540;-87
2023/01/08 04:47:20;;;;;;;6.67;4.87;;;;;;;;;;4976371;28;20567;-87
2023/01/08 04:50:25;;;;;;;9.87;5.37;;;;;;;;;;4964493;29;20634;-88
2023/01/08 04:53:33;;;;;;;6.00;4.40;;;;;;;;;;4964244;28;20873;-89
2023/01/08 04:56:37;;;;;;;5.80;4.50;;;;;;;;;;4954776;29;20544;-87
2023/01/08 04:59:41;;;;;;;7.90;5.10;;;;;;;;;;4976515;28;20543;-87
2023/01/08 05:02:45;;;;;;;7.37;4.60;;;;;;;;;;4965068;28;20603;-87
2023/01/08 05:05:50;;;;;;;9.33;4.60;;;;;;;;;;4976989;28;20551;-87
2023/01/08 05:08:54;;;;;;;9.37;4.60;;;;;;;;;;4956471;29;20547;-87
2023/01/08 05:11:58;;;;;;;5.70;4.37;;;;;;;;;;4965408;29;20638;-87
2023/01/08 05:15:03;;;;;;;5.87;4.10;;;;;;;;;;4955043;29;20603;-87
2023/01/08 05:18:08;;;;;;;6.63;4.33;;;;;;;;;;4965228;28;20630;-87
2023/01/08 05:21:13;;;;;;;6.13;4.47;;;;;;;;;;4976690;28;21205;-87
2023/01/08 05:24:17;;;;;;;6.30;4.20;;;;;;;;;;4964916;29;21122;-87
2023/01/08 05:27:21;;;;;;;6.77;4.70;;;;;;;;;;4965008;29;20595;-87
2023/01/08 05:30:25;;;;;;;6.20;4.23;;;;;;;;;;4963735;29;20623;-87
2023/01/08 05:33:30;;;;;;;8.90;4.53;;;;;;;;;;4974762;28;20543;-88
2023/01/08 05:36:34;;;;;;;6.20;4.57;;;;;;;;;;4953031;29;20543;-87
2023/01/08 05:39:38;;;;;;;6.17;4.53;;;;;;;;;;4965363;29;20544;-87
2023/01/08 05:42:42;;;;;;;7.30;5.00;;;;;;;;;;4964071;29;20596;-87
2023/01/08 05:45:46;;;;;;;8.97;5.50;;;;;;;;;;4973035;28;20547;-87
2023/01/08 05:48:50;;;;;;;6.63;5.07;;;;;;;;;;4975463;28;20559;-87
2023/01/08 05:51:55;;;;;;;7.13;5.43;;;;;;;;;;4953213;29;21197;-87
2023/01/08 05:54:59;;;;;;;6.60;5.23;;;;;;;;;;4974368;28;20547;-87
2023/01/08 05:58:04;;;;;;;7.93;4.90;;;;;;;;;;4963340;28;20544;-87
2023/01/08 06:01:12;;;;;;;9.03;5.00;;;;;;;;;;4974235;28;20619;-87
2023/01/08 06:04:15;;;;;;;7.20;4.67;;;;;;;;;;4951793;29;20607;-87
2023/01/08 06:07:20;;;;;;;8.33;5.53;;;;;;;;;;4941565;29;20614;-87
2023/01/08 06:10:25;;;;;;;6.80;5.03;;;;;;;;;;4973243;28;20631;-88
2023/01/08 06:13:29;;;;;;;7.30;5.17;;;;;;;;;;4962893;29;20552;-87
2023/01/08 06:16:33;;;;;;;6.87;4.70;;;;;;;;;;4962562;29;20539;-87
2023/01/08 06:19:40;;;;;;;7.10;4.43;;;;;;;;;;4973359;28;21165;-87
2023/01/08 06:22:44;;;;;;;5.40;4.27;;;;;;;;;;4962744;29;20596;-87
2023/01/08 06:25:53;;;;;;;6.40;4.40;;;;;;;;;;4962884;29;20611;-87
2023/01/08 06:28:57;;;;;;;6.00;4.40;;;;;;;;;;4973087;28;20547;-87
2023/01/08 06:32:01;;;;;;;9.23;4.57;;;;;;;;;;4971228;28;20634;-88
2023/01/08 06:35:06;;;;;;;4.80;3.87;;;;;;;;;;4959887;29;20611;-87
2023/01/08 06:38:10;;;;;;;5.27;4.03;;;;;;;;;;4955391;28;20900;-88
2023/01/08 06:41:14;;;;;;;5.70;4.03;;;;;;;;;;4938612;29;20626;-87
2023/01/08 06:44:18;;;;;;;6.20;4.87;;;;;;;;;;4970842;28;20602;-87
2023/01/08 06:47:22;;;;;;;5.57;4.13;;;;;;;;;;4959949;28;20547;-88
2023/01/08 06:50:28;;;;;;;5.17;3.93;;;;;;;;;;4959297;29;20635;-88
2023/01/08 06:53:32;;;;;;;4.90;4.40;;;;;;;;;;4937513;29;20543;-88
2023/01/08 06:56:36;;;;;;;6.27;4.30;;;;;;;;;;4958054;28;20546;-87
2023/01/08 06:59:41;;;;;;;5.47;4.47;;;;;;;;;;4935992;29;20547;-88
2023/01/08 07:02:45;;;;;;;6.63;4.10;;;;;;;;;;4968651;28;20599;-87
2023/01/08 07:05:49;;;;;;;5.40;3.53;;;;;;;;;;4945234;29;20548;-88
2023/01/08 07:08:53;;;;;;;6.20;4.03;;;;;;;;;;4944548;29;20607;-89
2023/01/08 07:11:57;;;;;;;5.73;3.50;;;;;;;;;;4944689;29;20627;-88
2023/01/08 07:15:02;;;;;;;8.67;5.97;;;;;;;;;;4955795;29;20543;-88
2023/01/08 07:18:08;;;;;;;12.53;7.67;;;;;;;;;;4955949;29;20615;-88
2023/01/08 07:21:12;;;;;;;7.90;5.40;;;;;;;;;;4944895;29;20630;-88
2023/01/08 07:24:16;;;;;;;5.07;3.90;;;;;;;;;;4934043;29;20599;-87
2023/01/08 07:27:21;;;;;;;7.43;4.53;;;;;;;;;;4966474;28;20551;-88
2023/01/08 07:30:25;;;;;;;8.70;6.60;;;;;;;;;;4944734;29;20626;-88
2023/01/08 07:33:30;;;;;;;10.10;6.40;;;;;;;;;;4955355;29;20540;-88
2023/01/08 07:36:34;;;;;;;9.70;6.07;;;;;;;;;;4966112;28;20606;-88
2023/01/08 07:39:38;;;;;;;8.87;6.67;;;;;;;;;;4966422;28;20548;-87
2023/01/08 07:42:42;;;;;;;13.43;7.87;;;;;;;;;;4933005;29;20901;-88
2023/01/08 07:45:46;;;;;;;8.53;6.23;;;;;;;;;;4955458;29;20544;-88
2023/01/08 07:48:50;;;;;;;9.03;6.27;;;;;;;;;;4955186;29;21141;-89
2023/01/08 07:51:54;;;;;;;8.90;6.30;;;;;;;;;;4955022;29;20635;-88
2023/01/08 07:54:58;;;;;;;7.03;5.60;;;;;;;;;;4965916;28;20602;-91
2023/01/08 07:58:08;;;;;;;7.27;4.53;;;;;;;;;;4966898;28;21047;-90
2023/01/08 08:01:13;;;;;;;9.83;6.00;;;;;;;;;;4955147;29;20631;-90
2023/01/08 08:04:18;;;;;;;9.80;6.37;;;;;;;;;;4967523;28;20599;-87
2023/01/08 08:07:21;;;;;;;8.07;6.07;;;;;;;;;;4956394;28;20573;-87
2023/01/08 08:10:26;;;;;;;6.80;5.53;;;;;;;;;;4958763;29;20622;-87
2023/01/08 08:13:30;;;;;;;6.90;4.50;;;;;;;;;;4947538;29;20539;-87
2023/01/08 08:16:34;;;;;;;7.23;5.07;;;;;;;;;;4960196;29;20543;-88
2023/01/08 08:19:42;;;;;;;5.60;4.60;;;;;;;;;;4948639;29;20622;-87
2023/01/08 08:22:46;;;;;;;8.80;5.87;;;;;;;;;;4969770;28;20559;-87
2023/01/08 08:25:51;;;;;;;8.17;5.87;;;;;;;;;;4969585;28;20188;-88
2023/01/08 08:28:54;;;;;;;16.83;6.00;;;;;;;;;;4969510;28;20535;-88
2023/01/08 08:31:59;;;;;;;6.30;4.80;;;;;;;;;;4958817;29;20675;-89
2023/01/08 08:35:04;;;;;;;5.23;3.97;;;;;;;;;;4947263;29;20180;-89
2023/01/08 08:38:08;;;;;;;8.90;5.50;;;;;;;;;;4969530;28;20184;-90
2023/01/08 08:41:12;;;;;;;6.97;5.20;;;;;;;;;;4950530;29;20215;-90
2023/01/08 08:44:16;;;;;;;11.80;7.53;;;;;;;;;;4960205;29;20208;-89
2023/01/08 08:47:21;;;;;;;11.77;8.90;;;;;;;;;;4971398;28;20524;-89
2023/01/08 08:50:25;;;;;;;11.50;7.87;;;;;;;;;;4971480;28;20215;-89
2023/01/08 08:53:29;;;;;;;9.03;6.10;;;;;;;;;;4960490;29;20199;-89
2023/01/08 08:56:33;;;;;;;9.90;7.30;;;;;;;;;;4961542;29;20203;-89
2023/01/08 08:59:38;;;;;;;11.60;8.17;;;;;;;;;;4951919;29;20183;-89
2023/01/08 09:02:42;;;;;;;14.63;9.33;;;;;;;;;;4964343;29;20635;-89
2023/01/08 09:05:46;;;;;;;10.50;6.80;;;;;;;;;;4943827;29;20179;-87
2023/01/08 09:08:51;;;;;;;10.30;6.77;;;;;;;;;;4966388;29;20179;-88
2023/01/08 09:11:55;;;;;;;9.53;6.20;;;;;;;;;;4977191;28;20690;-87
2023/01/08 09:14:59;;;;;;;10.30;5.80;;;;;;;;;;4977360;28;20172;-87
2023/01/08 09:18:04;;;;;;;8.53;6.13;;;;;;;;;;4976267;28;20211;-87
2023/01/08 09:21:08;;;;;;;10.77;7.73;;;;;;;;;;4942502;29;20678;-88
2023/01/08 09:24:12;;;;;;;13.23;8.23;;;;;;;;;;4953087;29;20211;-88
2023/01/08 09:27:18;;;;;;;11.03;7.40;;;;;;;;;;4974192;28;20639;-88
2023/01/08 09:30:22;;;;;;;8.07;5.50;;;;;;;;;;4973183;28;20702;-88
2023/01/08 09:33:26;;;;;;;10.27;7.27;;;;;;;;;;4962251;29;20187;-89
2023/01/08 09:36:30;;;;;;;8.50;6.13;;;;;;;;;;4961631;28;20250;-88
2023/01/08 09:39:35;;;;;;;10.17;7.20;;;;;;;;;;4949036;29;20543;-89
2023/01/08 09:42:39;;;;;;;12.97;8.07;;;;;;;;;;4959672;29;20179;-88
2023/01/08 09:45:47;;;;;;;11.27;7.33;;;;;;;;;;4937868;29;20179;-88
2023/01/08 09:48:53;;;;;;;9.97;6.80;;;;;;;;;;4970355;28;20188;-89
2023/01/08 09:51:58;;;;;;;12.30;7.43;;;;;;;;;;4959479;29;20699;-88
2023/01/08 09:55:03;;;;;;;7.77;5.37;;;;;;;;;;4969351;28;20199;-88
2023/01/08 09:58:22;;;;;;;8.57;6.47;;;;;;;;;;4958259;29;20184;-88
2023/01/08 10:01:29;;;;;;;9.47;6.77;;;;;;;;;;4958472;29;20219;-88
2023/01/08 10:04:33;;;;;;;8.53;6.33;;;;;;;;;;4957891;29;20211;-89
2023/01/08 10:07:38;;;;;;;15.60;10.37;;;;;;;;;;4957914;29;20567;-88
2023/01/08 10:10:43;;;;;;;11.33;7.27;;;;;;;;;;4956945;29;20583;-88
2023/01/08 10:13:51;;;;;;;6.97;5.60;;;;;;;;;;4935809;29;20180;-88
2023/01/08 10:16:59;;;;;;;8.37;5.80;;;;;;;;;;4935450;29;20184;-88
2023/01/08 10:20:19;;;;;;;8.10;5.10;;;;;;;;;;4968171;28;20517;-89
2023/01/08 10:23:23;;;;;;;7.80;5.37;;;;;;;;;;4957235;29;20632;-88
2023/01/08 10:26:30;;;;;;;7.63;5.83;;;;;;;;;;4957234;29;20184;-88
2023/01/08 10:29:34;;;;;;;7.60;6.00;;;;;;;;;;4968232;28;20187;-88
2023/01/08 10:32:38;;;;;;;7.80;5.73;;;;;;;;;;4968928;28;20203;-88
2023/01/08 10:35:51;;;;;;;8.23;6.13;;;;;;;;;;4958000;29;20191;-88
2023/01/08 10:39:01;;;;;;;7.90;5.93;;;;;;;;;;4946565;29;20192;-88
2023/01/08 10:42:05;;;;;;;7.67;5.63;;;;;;;;;;4957582;29;20224;-88
2023/01/08 10:45:19;;;;;;;6.63;4.90;;;;;;;;;;4946143;29;20208;-88
2023/01/08 10:48:28;;;;;;;6.00;4.87;;;;;;;;;;4957894;29;20180;-88
2023/01/08 10:51:32;;;;;;;6.60;4.60;;;;;;;;;;4945852;29;20215;-88
2023/01/08 10:54:38;;;;;;;7.43;5.30;;;;;;;;;;4956769;29;20205;-88
2023/01/08 10:57:52;;;;;;;6.63;4.93;;;;;;;;;;4956595;29;20180;-88
2023/01/08 11:01:20;;;;;;;6.00;4.40;;;;;;;;;;4968498;28;20219;-88
2023/01/08 11:04:33;;;;;;;6.40;4.50;;;;;;;;;;4967689;28;20211;-88
2023/01/08 11:07:39;;;;;;;7.00;4.07;;;;;;;;;;4957009;29;20199;-88
2023/01/08 11:10:53;;;;;;;6.27;4.47;;;;;;;;;;4934640;29;20215;-88
2023/01/08 11:14:00;;;;;;;4.57;3.77;;;;;;;;;;4967310;28;20177;-88
2023/01/08 11:17:11;;;;;;;4.63;3.30;;;;;;;;;;4934930;29;20191;-88
2023/01/08 11:20:29;;;;;;;6.80;4.27;;;;;;;;;;4967119;28;20187;-88
2023/01/08 11:23:33;;;;;;;4.97;3.73;;;;;;;;;;4945955;29;20204;-89
2023/01/08 11:26:41;;;;;;;7.37;4.17;;;;;;;;;;4956696;29;20175;-89
2023/01/08 11:29:51;;;;;;;4.93;3.77;;;;;;;;;;4956212;29;20187;-89
2023/01/08 11:33:09;;;;;;;4.50;3.50;;;;;;;;;;4956087;28;20180;-89
2023/01/08 11:36:21;;;;;;;6.33;3.87;;;;;;;;;;4944578;29;20222;-89
2023/01/08 11:39:25;;;;;;;7.00;4.90;;;;;;;;;;4956096;29;20191;-89
2023/01/08 11:42:41;;;;;;;6.87;4.80;;;;;;;;;;4957085;28;20187;-89
2023/01/08 11:46:02;;;;;;;7.17;5.27;;;;;;;;;;4948660;29;20552;-88
2023/01/08 11:49:38;;;;;;;6.30;4.10;;;;;;;;;;4948582;29;20180;-88
2023/01/08 11:53:06;;;;;;;5.07;3.70;;;;;;;;;;4959436;29;20188;-88
2023/01/08 11:56:30;;;;;;;3.37;2.90;;;;;;;;;;4970329;28;20187;-88
2023/01/08 11:59:56;;;;;;;4.17;2.90;;;;;;;;;;4970612;28;20183;-88
2023/01/08 12:03:06;;;;;;;4.93;3.43;;;;;;;;;;4959478;29;20184;-88
2023/01/08 12:06:46;;;;;;;4.77;3.53;;;;;;;;;;4949513;29;20212;-88
2023/01/08 12:10:22;;;;;;;4.50;3.60;;;;;;;;;;4961341;29;20184;-92
2023/01/08 12:13:44;;;;;;;21.43;4.17;;;;;;;;;;4959933;29;20184;-90
2023/01/08 12:17:18;;;;;;;6.53;3.50;;;;;;;;;;4960187;29;20192;-90
2023/01/08 12:20:31;;;;;;;4.63;3.20;;;;;;;;;;4948640;29;20223;-90
2023/01/08 12:23:55;;;;;;;3.70;3.13;;;;;;;;;;4971864;28;20187;-89
2023/01/08 12:27:14;;;;;;;5.03;3.40;;;;;;;;;;4960905;29;20193;-88
2023/01/08 12:30:33;;;;;;;5.37;3.33;;;;;;;;;;4949269;29;20188;-88
2023/01/08 12:33:43;;;;;;;4.73;3.17;;;;;;;;;;4970360;28;20195;-88
2023/01/08 12:37:02;;;;;;;4.33;3.20;;;;;;;;;;4959529;29;20180;-88
2023/01/08 12:40:09;;;;;;;4.47;3.27;;;;;;;;;;4949497;29;20622;-89
2023/01/08 12:43:18;;;;;;;3.07;2.60;;;;;;;;;;4948229;29;20681;-89
2023/01/08 12:46:25;;;;;;;4.97;3.07;;;;;;;;;;4970399;28;20215;-89
2023/01/08 12:50:05;;;;;;;4.50;2.50;;;;;;;;;;4960245;29;20184;-88
2023/01/08 12:53:14;;;;;;;3.27;2.43;;;;;;;;;;4947547;28;20204;-90
2023/01/08 12:56:36;;;;;;;4.27;2.83;;;;;;;;;;4948990;29;20627;-89
2023/01/08 12:59:49;;;;;;;3.20;2.57;;;;;;;;;;4960094;29;20195;-89
2023/01/08 13:02:59;;;;;;;3.40;2.50;;;;;;;;;;4948669;29;20627;-89
2023/01/08 13:06:10;;;;;;;4.17;2.30;;;;;;;;;;4959273;29;20667;-89
2023/01/08 13:09:23;;;;;;;3.13;2.23;;;;;;;;;;4959328;29;20186;-89
2023/01/08 13:12:38;;;;;;;3.23;2.17;;;;;;;;;;4970868;28;20624;-89
2023/01/08 13:15:42;;;;;;;4.30;2.40;;;;;;;;;;4969890;28;20624;-90
2023/01/08 13:19:26;;;;;;;3.63;2.30;;;;;;;;;;4958463;29;20663;-89
2023/01/08 13:22:32;;;;;;;3.33;2.53;;;;;;;;;;4958553;29;20636;-89
2023/01/08 13:25:37;;;;;;;5.47;2.90;;;;;;;;;;4969433;28;20575;-89
2023/01/08 13:28:44;;;;;;;4.43;2.90;;;;;;;;;;4969766;28;20647;-89
2023/01/08 13:31:48;;;;;;;3.77;2.97;;;;;;;;;;4958083;29;20223;-90
2023/01/08 13:35:20;;;;;;;3.67;2.63;;;;;;;;;;4958252;29;20184;-89
2023/01/08 13:38:24;;;;;;;4.80;3.30;;;;;;;;;;4958132;29;20181;-89
2023/01/08 13:41:30;;;;;;;5.13;3.03;;;;;;;;;;4958148;29;20215;-90
2023/01/08 13:44:41;;;;;;;4.27;3.10;;;;;;;;;;4969033;28;20187;-89
2023/01/08 13:47:45;;;;;;;4.00;3.30;;;;;;;;;;4957997;29;20547;-89
2023/01/08 13:50:53;;;;;;;5.53;3.17;;;;;;;;;;4969015;28;20215;-89
2023/01/08 13:54:11;;;;;;;5.67;2.90;;;;;;;;;;4947334;29;20191;-88
2023/01/08 13:57:18;;;;;;;4.17;2.90;;;;;;;;;;4946915;29;20187;-90
2023/01/08 14:00:37;;;;;;;4.73;3.13;;;;;;;;;;4957742;29;20219;-90
2023/01/08 14:03:48;;;;;;;12.07;4.00;;;;;;;;;;4969056;28;20184;-90
2023/01/08 14:06:52;;;;;;;8.23;3.40;;;;;;;;;;4970264;28;20212;-93
2023/01/08 14:10:12;;;;;;;5.37;3.53;;;;;;;;;;4969939;28;20627;-93
2023/01/08 14:13:18;;;;;;;3.83;3.00;;;;;;;;;;4962290;28;20632;-92
2023/01/08 14:16:22;;;;;;;4.07;3.20;;;;;;;;;;4947842;29;20184;-89
2023/01/08 14:19:27;;;;;;;5.00;3.10;;;;;;;;;;4949026;29;20234;-88
2023/01/08 14:22:33;;;;;;;4.87;3.07;;;;;;;;;;4969198;28;20183;-90
2023/01/08 14:25:39;;;;;;;4.53;2.87;;;;;;;;;;4957199;29;20208;-90
2023/01/08 14:28:52;;;;;;;4.03;3.00;;;;;;;;;;4946420;29;20175;-90
2023/01/08 14:31:58;;;;;;;4.17;3.23;;;;;;;;;;4967935;28;20219;-91
2023/01/08 14:35:03;;;;;;;8.53;3.70;;;;;;;;;;4956361;29;20512;-90
2023/01/08 14:38:13;;;;;;;5.07;3.37;;;;;;;;;;4968333;28;20183;-90
2023/01/08 14:45:03;;;;;;;4.60;3.53;;;;;;;;;;4967620;28;20180;-90
2023/01/08 14:48:10;;;;;;;5.73;4.00;;;;;;;;;;4956909;28;20183;-90
2023/01/08 14:51:21;;;;;;;5.60;3.23;;;;;;;;;;4957998;29;20214;-90
2023/01/08 14:54:32;;;;;;;4.93;4.07;;;;;;;;;;4957678;28;20192;-90
2023/01/08 14:57:36;;;;;;;4.53;3.50;;;;;;;;;;4935491;29;20179;-90
2023/01/08 15:00:41;;;;;;;7.47;3.57;;;;;;;;;;4946522;29;20227;-90
2023/01/08 15:03:47;;;;;;;4.60;3.33;;;;;;;;;;4968595;28;20180;-90
2023/01/08 15:07:03;;;;;;;4.10;3.53;;;;;;;;;;4956924;29;20215;-90
2023/01/08 15:10:34;;;;;;;5.83;3.83;;;;;;;;;;4957189;29;20188;-90
2023/01/08 15:13:38;;;;;;;5.43;3.73;;;;;;;;;;4968480;28;20179;-90
2023/01/08 15:16:43;;;;;;;6.33;4.03;;;;;;;;;;4956205;28;20187;-90
2023/01/08 15:19:53;;;;;;;7.13;5.37;;;;;;;;;;4945357;29;20195;-90
2023/01/08 15:22:58;;;;;;;7.57;4.87;;;;;;;;;;4956669;29;20624;-90
2023/01/08 15:26:02;;;;;;;8.07;5.40;;;;;;;;;;4934628;29;20211;-90
2023/01/08 15:29:06;;;;;;;9.57;5.97;;;;;;;;;;4945189;29;20520;-90
2023/01/08 15:32:13;;;;;;;7.33;4.80;;;;;;;;;;4945770;29;20222;-91
2023/01/08 15:35:18;;;;;;;5.23;3.80;;;;;;;;;;4956217;29;20631;-90
2023/01/08 15:38:22;;;;;;;5.17;3.87;;;;;;;;;;4955268;29;20198;-90
2023/01/08 15:44:57;;;;;;;4.60;3.90;;;;;;;;;;4967065;28;20628;-90
2023/01/08 15:48:02;;;;;;;5.10;4.47;;;;;;;;;;4944579;29;20179;-91
2023/01/08 15:51:08;;;;;;;5.80;4.30;;;;;;;;;;4966673;28;20219;-89
2023/01/08 15:54:18;;;;;;;7.47;4.47;;;;;;;;;;4955146;29;20207;-90
2023/01/08 15:57:22;;;;;;;7.73;4.77;;;;;;;;;;4955423;29;20176;-90
2023/01/08 16:00:26;;;;;;;6.53;4.43;;;;;;;;;;4966884;28;20215;-88
2023/01/08 16:03:30;;;;;;;6.97;4.90;;;;;;;;;;4955558;29;20544;-87
2023/01/08 16:06:35;;;;;;;6.47;5.00;;;;;;;;;;4933558;29;20225;-90
2023/01/08 16:09:39;;;;;;;5.40;4.57;;;;;;;;;;4955100;29;20176;-88
2023/01/08 16:12:43;;;;;;;7.60;4.80;;;;;;;;;;4966090;28;20179;-88
2023/01/08 16:15:47;;;;;;;5.10;4.47;;;;;;;;;;4955226;29;20175;-88
2023/01/08 16:18:52;;;;;;;6.03;4.50;;;;;;;;;;4955130;29;20548;-88
2023/01/08 16:21:56;;;;;;;12.50;7.60;;;;;;;;;;4932692;29;20578;-89
2023/01/08 16:25:01;;;;;;;10.80;6.40;;;;;;;;;;4954845;29;20532;-89
2023/01/08 16:28:06;;;;;;;9.50;7.47;;;;;;;;;;4955311;28;20183;-89
2023/01/08 16:31:10;;;;;;;11.03;8.80;;;;;;;;;;4936092;29;20211;-89
2023/01/08 16:34:15;;;;;;;9.80;6.97;;;;;;;;;;4969574;28;20179;-89
2023/01/08 16:37:18;;;;;;;11.27;7.57;;;;;;;;;;4947202;29;20188;-89
2023/01/08 16:40:22;;;;;;;11.87;8.60;;;;;;;;;;4936038;29;20227;-89
2023/01/08 16:43:29;;;;;;;11.80;7.90;;;;;;;;;;4947184;29;20183;-90
2023/01/08 16:46:33;;;;;;;7.53;5.93;;;;;;;;;;4969324;28;20575;-89
2023/01/08 16:49:38;;;;;;;9.10;6.57;;;;;;;;;;4947394;29;20195;-90
2023/01/08 16:52:42;;;;;;;6.93;5.30;;;;;;;;;;4968951;28;20187;-89
2023/01/08 16:55:46;;;;;;;6.30;4.53;;;;;;;;;;4947669;29;20175;-88
2023/01/08 16:58:51;;;;;;;6.93;5.13;;;;;;;;;;4947168;29;20180;-88
2023/01/08 17:01:55;;;;;;;7.33;5.33;;;;;;;;;;4946362;29;20225;-89
2023/01/08 17:04:59;;;;;;;7.50;5.83;;;;;;;;;;4958185;29;20184;-89
2023/01/08 17:08:04;;;;;;;8.43;6.33;;;;;;;;;;4947442;29;20179;-88
2023/01/08 17:11:13;;;;;;;10.50;6.37;;;;;;;;;;4968516;28;20594;-88
2023/01/08 17:14:17;;;;;;;10.57;7.00;;;;;;;;;;4969524;28;20195;-89
2023/01/08 17:17:21;;;;;;;11.20;6.03;;;;;;;;;;4935889;29;20207;-89
2023/01/08 17:20:25;;;;;;;9.33;6.63;;;;;;;;;;4957533;29;20560;-89
2023/01/08 17:23:29;;;;;;;8.37;6.03;;;;;;;;;;4968593;28;20179;-89
2023/01/08 17:26:33;;;;;;;8.87;6.03;;;;;;;;;;4969324;28;20211;-89
2023/01/08 17:29:38;;;;;;;7.70;5.63;;;;;;;;;;4935806;29;20188;-89
2023/01/08 17:32:42;;;;;;;8.67;6.20;;;;;;;;;;4946524;29;20179;-89
2023/01/08 17:35:47;;;;;;;12.77;8.60;;;;;;;;;;4957237;29;20184;-89
2023/01/08 17:38:53;;;;;;;11.30;7.73;;;;;;;;;;4947368;29;20207;-89
2023/01/08 17:45:20;;;;;;;17.60;9.43;;;;;;;;;;4968278;28;20180;-88
2023/01/08 17:48:24;;;;;;;8.50;6.20;;;;;;;;;;4957474;29;20175;-90
2023/01/08 17:51:29;;;;;;;9.73;6.47;;;;;;;;;;4957284;29;20219;-89
2023/01/08 17:54:33;;;;;;;7.57;5.80;;;;;;;;;;4946035;29;20663;-89
2023/01/08 17:57:38;;;;;;;7.27;5.40;;;;;;;;;;4968018;28;20192;-89
2023/01/08 18:00:41;;;;;;;8.53;6.33;;;;;;;;;;4956821;29;20219;-89
2023/01/08 18:03:46;;;;;;;8.83;6.07;;;;;;;;;;4957094;29;20183;-87
2023/01/08 18:06:50;;;;;;;9.20;6.27;;;;;;;;;;4957316;28;20207;-89
2023/01/08 18:09:56;;;;;;;7.60;5.60;;;;;;;;;;4956674;29;20188;-89
2023/01/08 18:13:00;;;;;;;8.73;5.90;;;;;;;;;;4956851;29;20188;-89
2023/01/08 18:16:07;;;;;;;7.57;5.90;;;;;;;;;;4970343;28;20512;-89
2023/01/08 18:19:11;;;;;;;8.03;5.33;;;;;;;;;;4935677;29;20211;-88
2023/01/08 18:22:15;;;;;;;8.03;5.60;;;;;;;;;;4936536;29;20674;-89
2023/01/08 18:25:19;;;;;;;6.60;5.20;;;;;;;;;;4936054;29;20180;-88
2023/01/08 18:28:23;;;;;;;7.33;5.70;;;;;;;;;;4958117;29;20184;-89
2023/01/08 18:31:28;;;;;;;7.67;6.30;;;;;;;;;;4957832;28;20223;-88
2023/01/08 18:34:32;;;;;;;8.93;5.83;;;;;;;;;;4974495;28;20651;-87
2023/01/08 18:37:36;;;;;;;8.40;6.37;;;;;;;;;;4966358;29;20183;-87
2023/01/08 18:40:45;;;;;;;9.30;6.37;;;;;;;;;;4984478;28;20227;-88
2023/01/08 18:43:50;;;;;;;10.20;6.70;;;;;;;;;;4987322;28;20194;-89
2023/01/08 18:46:54;;;;;;;9.23;6.40;;;;;;;;;;4973496;28;20206;-89
2023/01/08 18:50:02;;;;;;;7.73;6.23;;;;;;;;;;4984764;28;20194;-87
2023/01/08 18:53:07;;;;;;;9.03;6.60;;;;;;;;;;4984879;28;20175;-88